El Centro Naf Airport
KNJK : now visible

Airfield :











YOU CAN JOIN US ON...

 
LOGIN :

Register | Disclaimer

   EN    FR    IT 

 









Legend :    VFR   Marginal VFR   IFR   Intensive IFR   Very Intensive IFR
Visi :
Ceiling :
>= 8 km
>= 3000ft
5 to 8 km
1000 to 3000 ft
1500m to 5 km
500 to 1000 ft
800 to 1500m
200 to 500 ft
< 800m
< 200 ft
Symbols :   Thunderstorms  Fog  Heavy snow  Heavy precipitations  Wind > 20 kt






- Airport Elevation : -42 ft


KNJK - El Centro Naf

CURRENT METAR :
  • 261156Z AUTO 17004KT 10SM CLR 22/15 A2988 RMK AO2 SLP134 T02220150 10256 20222 51006 $

EXPIRED METARs :
  • 261056Z AUTO 29003KT 10SM CLR 23/15 A2987 RMK AO2 SLP132 T02280150 $
  • 260956Z AUTO 26004KT 10SM CLR 23/14 A2987 RMK AO2 SLP131 T02280144 $

TAF TAF KNJK
Valid from the 25 at 15:00 until the 26 at 15:00 UTC


2515/2615 VRB06KT 9000 HZ FEW120 QNH2994INS
BECMG 2521/2523 13008KT 9999 VCTS SCT080 BKN100CB BKN180 QNH2982INS
TEMPO 2523/2602 VRB15G24KT 6000 -TSRA BKN080CB BKN150 QNH2997INS
BECMG 2602/2604 VRB06KT 9999 VCTS SCT070 SCT100CB BKN200 QNH2985INS
FM260800 VRB06KT FEW070 FEW130 QNH2987INS T35/2522Z T22/2613Z FS30186
KZLA FIR / North America



MET'MAP, your aeronautical weather chart ! - Copyright ORBIFLY December 2007 - Disclaimer

ORBIFLY MET'MAP TEAM :

Programming & Development : Alexandra Zaïnal
Concept & original design : Baudouin d'Aumeries
Assistance for programming : Marc-Olivier Méhu
Technical & hardware support : Manuel Goepfert

Contact : metmap@orbifly.com




SOURCES & CREDITS :

   NOAA       Earth
Advisory